sensor_id;sensor_type;location;lat;lon;timestamp;temperature;humidity
19930;DHT22;10127;47.780;9.606;2022-07-10T00:00:05;19.30;99.90
19930;DHT22;10127;47.780;9.606;2022-07-10T00:02:31;19.20;99.90
19930;DHT22;10127;47.780;9.606;2022-07-10T00:04:57;19.20;99.90
19930;DHT22;10127;47.780;9.606;2022-07-10T00:07:22;19.10;99.90
19930;DHT22;10127;47.780;9.606;2022-07-10T00:09:48;19.20;99.90
19930;DHT22;10127;47.780;9.606;2022-07-10T00:12:13;19.20;99.90
19930;DHT22;10127;47.780;9.606;2022-07-10T00:14:39;19.40;99.90
19930;DHT22;10127;47.780;9.606;2022-07-10T00:17:04;19.40;99.90
19930;DHT22;10127;47.780;9.606;2022-07-10T00:19:30;19.50;99.90
19930;DHT22;10127;47.780;9.606;2022-07-10T00:21:56;19.50;99.90
19930;DHT22;10127;47.780;9.606;2022-07-10T00:24:21;19.40;99.90
19930;DHT22;10127;47.780;9.606;2022-07-10T00:26:47;19.00;99.90
19930;DHT22;10127;47.780;9.606;2022-07-10T00:29:13;19.00;99.90
19930;DHT22;10127;47.780;9.606;2022-07-10T00:31:39;19.10;99.90
19930;DHT22;10127;47.780;9.606;2022-07-10T00:34:04;19.10;99.90
19930;DHT22;10127;47.780;9.606;2022-07-10T00:36:31;19.10;99.90
19930;DHT22;10127;47.780;9.606;2022-07-10T00:38:57;19.10;99.90
19930;DHT22;10127;47.780;9.606;2022-07-10T00:41:23;19.10;99.90
19930;DHT22;10127;47.780;9.606;2022-07-10T00:46:18;19.10;99.90
19930;DHT22;10127;47.780;9.606;2022-07-10T00:48:46;19.10;99.90
19930;DHT22;10127;47.780;9.606;2022-07-10T00:51:12;19.20;99.90
19930;DHT22;10127;47.780;9.606;2022-07-10T00:53:38;19.20;99.90
19930;DHT22;10127;47.780;9.606;2022-07-10T00:56:06;19.10;99.90
19930;DHT22;10127;47.780;9.606;2022-07-10T00:58:33;19.00;99.90
19930;DHT22;10127;47.780;9.606;2022-07-10T01:00:59;18.80;99.90
19930;DHT22;10127;47.780;9.606;2022-07-10T01:03:25;18.70;99.90
19930;DHT22;10127;47.780;9.606;2022-07-10T01:26:24;18.50;99.90
19930;DHT22;10127;47.780;9.606;2022-07-10T01:28:54;18.40;99.90
19930;DHT22;10127;47.780;9.606;2022-07-10T01:31:24;18.40;99.90
19930;DHT22;10127;47.780;9.606;2022-07-10T01:33:50;18.40;99.90
19930;DHT22;10127;47.780;9.606;2022-07-10T01:36:16;18.40;99.90
19930;DHT22;10127;47.780;9.606;2022-07-10T01:38:43;18.40;99.90
19930;DHT22;10127;47.780;9.606;2022-07-10T01:41:09;18.40;99.90
19930;DHT22;10127;47.780;9.606;2022-07-10T01:43:36;18.50;99.90
19930;DHT22;10127;47.780;9.606;2022-07-10T01:46:02;18.50;99.90
19930;DHT22;10127;47.780;9.606;2022-07-10T01:48:29;18.50;99.90
19930;DHT22;10127;47.780;9.606;2022-07-10T01:50:54;18.50;99.90
19930;DHT22;10127;47.780;9.606;2022-07-10T01:53:20;18.50;99.90
19930;DHT22;10127;47.780;9.606;2022-07-10T01:55:46;18.50;99.90
19930;DHT22;10127;47.780;9.606;2022-07-10T01:58:11;18.50;99.90
19930;DHT22;10127;47.780;9.606;2022-07-10T02:00:37;18.50;99.90
19930;DHT22;10127;47.780;9.606;2022-07-10T02:03:02;18.50;99.90
19930;DHT22;10127;47.780;9.606;2022-07-10T02:05:47;18.40;99.90
19930;DHT22;10127;47.780;9.606;2022-07-10T02:08:12;18.40;99.90
19930;DHT22;10127;47.780;9.606;2022-07-10T02:10:38;18.40;99.90
19930;DHT22;10127;47.780;9.606;2022-07-10T02:13:04;18.50;99.90
19930;DHT22;10127;47.780;9.606;2022-07-10T02:15:29;18.50;99.90
19930;DHT22;10127;47.780;9.606;2022-07-10T02:17:55;18.40;99.90
19930;DHT22;10127;47.780;9.606;2022-07-10T02:20:20;18.40;99.90
19930;DHT22;10127;47.780;9.606;2022-07-10T02:22:46;18.30;99.90
19930;DHT22;10127;47.780;9.606;2022-07-10T02:25:11;18.20;99.90
19930;DHT22;10127;47.780;9.606;2022-07-10T02:27:37;18.20;99.90
19930;DHT22;10127;47.780;9.606;2022-07-10T02:30:03;18.20;99.90
19930;DHT22;10127;47.780;9.606;2022-07-10T02:32:28;18.20;99.90
19930;DHT22;10127;47.780;9.606;2022-07-10T02:34:54;18.10;99.90
19930;DHT22;10127;47.780;9.606;2022-07-10T02:37:19;18.10;99.90
19930;DHT22;10127;47.780;9.606;2022-07-10T02:39:45;18.10;99.90
19930;DHT22;10127;47.780;9.606;2022-07-10T02:42:11;18.10;99.90
19930;DHT22;10127;47.780;9.606;2022-07-10T02:44:36;18.10;99.90
19930;DHT22;10127;47.780;9.606;2022-07-10T02:47:02;18.10;99.90
19930;DHT22;10127;47.780;9.606;2022-07-10T02:49:27;18.10;99.90
19930;DHT22;10127;47.780;9.606;2022-07-10T02:51:53;18.10;99.90
19930;DHT22;10127;47.780;9.606;2022-07-10T02:54:19;18.10;99.90
19930;DHT22;10127;47.780;9.606;2022-07-10T02:56:44;18.10;99.90
19930;DHT22;10127;47.780;9.606;2022-07-10T02:59:10;18.10;99.90
19930;DHT22;10127;47.780;9.606;2022-07-10T03:01:35;18.00;99.90
19930;DHT22;10127;47.780;9.606;2022-07-10T03:04:01;18.00;99.90
19930;DHT22;10127;47.780;9.606;2022-07-10T03:06:27;18.00;99.90
19930;DHT22;10127;47.780;9.606;2022-07-10T03:08:52;17.90;99.90
19930;DHT22;10127;47.780;9.606;2022-07-10T03:11:18;18.00;99.90
19930;DHT22;10127;47.780;9.606;2022-07-10T03:13:43;17.90;99.90
19930;DHT22;10127;47.780;9.606;2022-07-10T03:16:09;17.80;99.90
19930;DHT22;10127;47.780;9.606;2022-07-10T03:18:35;17.80;99.90
19930;DHT22;10127;47.780;9.606;2022-07-10T03:21:00;17.90;99.90
19930;DHT22;10127;47.780;9.606;2022-07-10T03:23:26;17.80;99.90
19930;DHT22;10127;47.780;9.606;2022-07-10T03:25:51;17.80;99.90
19930;DHT22;10127;47.780;9.606;2022-07-10T03:28:17;17.90;99.90
19930;DHT22;10127;47.780;9.606;2022-07-10T03:30:42;17.90;99.90
19930;DHT22;10127;47.780;9.606;2022-07-10T03:33:08;17.80;99.90
19930;DHT22;10127;47.780;9.606;2022-07-10T03:35:34;17.90;99.90
19930;DHT22;10127;47.780;9.606;2022-07-10T03:37:59;17.90;99.90
19930;DHT22;10127;47.780;9.606;2022-07-10T03:40:25;17.90;99.90
19930;DHT22;10127;47.780;9.606;2022-07-10T03:42:52;17.90;99.90
19930;DHT22;10127;47.780;9.606;2022-07-10T03:45:17;17.90;99.90
19930;DHT22;10127;47.780;9.606;2022-07-10T03:47:43;17.90;99.90
19930;DHT22;10127;47.780;9.606;2022-07-10T03:50:09;17.90;99.90
19930;DHT22;10127;47.780;9.606;2022-07-10T03:52:34;18.10;99.90
19930;DHT22;10127;47.780;9.606;2022-07-10T03:55:00;18.10;99.90
19930;DHT22;10127;47.780;9.606;2022-07-10T03:57:26;18.00;99.90
19930;DHT22;10127;47.780;9.606;2022-07-10T04:00:10;18.10;99.90
19930;DHT22;10127;47.780;9.606;2022-07-10T04:02:37;18.20;99.90
19930;DHT22;10127;47.780;9.606;2022-07-10T04:05:05;18.20;99.90
19930;DHT22;10127;47.780;9.606;2022-07-10T04:07:31;18.30;99.90
19930;DHT22;10127;47.780;9.606;2022-07-10T04:09:57;18.00;99.90
19930;DHT22;10127;47.780;9.606;2022-07-10T04:12:22;17.90;99.90
19930;DHT22;10127;47.780;9.606;2022-07-10T04:14:48;17.80;99.90
19930;DHT22;10127;47.780;9.606;2022-07-10T04:17:17;17.70;99.90
19930;DHT22;10127;47.780;9.606;2022-07-10T04:19:42;17.60;99.90
19930;DHT22;10127;47.780;9.606;2022-07-10T04:22:08;17.70;99.90
19930;DHT22;10127;47.780;9.606;2022-07-10T04:24:34;17.80;99.90
19930;DHT22;10127;47.780;9.606;2022-07-10T04:26:59;17.90;99.90
19930;DHT22;10127;47.780;9.606;2022-07-10T04:29:25;18.00;99.90
19930;DHT22;10127;47.780;9.606;2022-07-10T04:31:50;18.10;99.90
19930;DHT22;10127;47.780;9.606;2022-07-10T04:34:16;18.20;99.90
19930;DHT22;10127;47.780;9.606;2022-07-10T04:36:41;18.30;99.90
19930;DHT22;10127;47.780;9.606;2022-07-10T04:39:07;18.30;99.90
19930;DHT22;10127;47.780;9.606;2022-07-10T04:41:32;18.50;99.90
19930;DHT22;10127;47.780;9.606;2022-07-10T04:43:58;18.50;99.90
19930;DHT22;10127;47.780;9.606;2022-07-10T04:46:23;18.40;99.90
19930;DHT22;10127;47.780;9.606;2022-07-10T04:48:49;18.10;99.90
19930;DHT22;10127;47.780;9.606;2022-07-10T04:51:16;18.00;99.90
19930;DHT22;10127;47.780;9.606;2022-07-10T04:53:41;18.00;99.90
19930;DHT22;10127;47.780;9.606;2022-07-10T04:56:07;18.10;99.90
19930;DHT22;10127;47.780;9.606;2022-07-10T04:58:32;18.20;99.90
19930;DHT22;10127;47.780;9.606;2022-07-10T05:00:58;18.20;99.90
19930;DHT22;10127;47.780;9.606;2022-07-10T05:03:23;18.20;99.90
19930;DHT22;10127;47.780;9.606;2022-07-10T05:05:49;18.30;99.90
19930;DHT22;10127;47.780;9.606;2022-07-10T05:08:15;18.30;99.90
19930;DHT22;10127;47.780;9.606;2022-07-10T05:10:40;18.30;99.90
19930;DHT22;10127;47.780;9.606;2022-07-10T05:13:06;18.50;99.90
19930;DHT22;10127;47.780;9.606;2022-07-10T05:15:32;18.40;99.90
19930;DHT22;10127;47.780;9.606;2022-07-10T05:17:57;18.40;99.90
19930;DHT22;10127;47.780;9.606;2022-07-10T05:20:23;18.40;99.90
19930;DHT22;10127;47.780;9.606;2022-07-10T05:22:48;18.60;99.90
19930;DHT22;10127;47.780;9.606;2022-07-10T05:25:14;18.70;99.90
19930;DHT22;10127;47.780;9.606;2022-07-10T05:27:39;18.70;99.90
19930;DHT22;10127;47.780;9.606;2022-07-10T05:30:05;18.80;99.90
19930;DHT22;10127;47.780;9.606;2022-07-10T05:32:31;18.90;99.90
19930;DHT22;10127;47.780;9.606;2022-07-10T05:34:58;19.00;99.90
19930;DHT22;10127;47.780;9.606;2022-07-10T05:37:24;19.00;99.90
19930;DHT22;10127;47.780;9.606;2022-07-10T05:39:49;19.00;99.90
19930;DHT22;10127;47.780;9.606;2022-07-10T05:42:15;19.10;99.90
19930;DHT22;10127;47.780;9.606;2022-07-10T05:44:41;19.00;99.90
19930;DHT22;10127;47.780;9.606;2022-07-10T05:47:06;19.00;99.90
19930;DHT22;10127;47.780;9.606;2022-07-10T05:49:32;19.20;99.90
19930;DHT22;10127;47.780;9.606;2022-07-10T05:51:58;19.20;99.90
19930;DHT22;10127;47.780;9.606;2022-07-10T05:54:23;19.20;99.90
19930;DHT22;10127;47.780;9.606;2022-07-10T05:56:49;19.00;99.90
19930;DHT22;10127;47.780;9.606;2022-07-10T05:59:15;19.00;99.90
19930;DHT22;10127;47.780;9.606;2022-07-10T06:01:41;19.20;99.90
19930;DHT22;10127;47.780;9.606;2022-07-10T06:04:06;19.10;99.90
19930;DHT22;10127;47.780;9.606;2022-07-10T06:06:32;19.10;99.90
19930;DHT22;10127;47.780;9.606;2022-07-10T06:08:57;19.10;99.90
19930;DHT22;10127;47.780;9.606;2022-07-10T06:11:24;19.10;99.90
19930;DHT22;10127;47.780;9.606;2022-07-10T06:13:50;19.10;99.90
19930;DHT22;10127;47.780;9.606;2022-07-10T06:16:15;19.10;99.90
19930;DHT22;10127;47.780;9.606;2022-07-10T06:18:41;19.30;99.90
19930;DHT22;10127;47.780;9.606;2022-07-10T06:21:07;19.40;99.90
19930;DHT22;10127;47.780;9.606;2022-07-10T06:23:33;19.40;99.90
19930;DHT22;10127;47.780;9.606;2022-07-10T06:25:59;19.40;99.90
19930;DHT22;10127;47.780;9.606;2022-07-10T06:28:24;19.40;99.90
19930;DHT22;10127;47.780;9.606;2022-07-10T06:30:50;19.40;99.90
19930;DHT22;10127;47.780;9.606;2022-07-10T06:33:15;19.50;99.70
19930;DHT22;10127;47.780;9.606;2022-07-10T06:35:41;19.50;99.60
19930;DHT22;10127;47.780;9.606;2022-07-10T06:38:07;19.70;99.20
19930;DHT22;10127;47.780;9.606;2022-07-10T06:40:36;19.70;99.50
19930;DHT22;10127;47.780;9.606;2022-07-10T06:43:02;19.90;99.30
19930;DHT22;10127;47.780;9.606;2022-07-10T06:45:28;19.80;99.40
19930;DHT22;10127;47.780;9.606;2022-07-10T06:47:54;19.90;99.00
19930;DHT22;10127;47.780;9.606;2022-07-10T06:50:25;19.90;98.80
19930;DHT22;10127;47.780;9.606;2022-07-10T06:52:51;19.90;98.70
19930;DHT22;10127;47.780;9.606;2022-07-10T06:55:18;20.00;98.40
19930;DHT22;10127;47.780;9.606;2022-07-10T06:57:45;19.70;98.80
19930;DHT22;10127;47.780;9.606;2022-07-10T07:00:10;19.60;99.10
19930;DHT22;10127;47.780;9.606;2022-07-10T07:02:37;19.50;99.20
19930;DHT22;10127;47.780;9.606;2022-07-10T07:05:03;19.70;99.20
19930;DHT22;10127;47.780;9.606;2022-07-10T07:07:29;20.10;98.70
19930;DHT22;10127;47.780;9.606;2022-07-10T07:09:55;20.30;98.40
19930;DHT22;10127;47.780;9.606;2022-07-10T07:12:20;20.30;98.30
19930;DHT22;10127;47.780;9.606;2022-07-10T07:14:46;20.50;98.00
19930;DHT22;10127;47.780;9.606;2022-07-10T07:17:12;20.20;98.40
19930;DHT22;10127;47.780;9.606;2022-07-10T07:19:40;20.20;98.50
19930;DHT22;10127;47.780;9.606;2022-07-10T07:22:25;20.00;98.70
19930;DHT22;10127;47.780;9.606;2022-07-10T07:25:10;20.10;98.80
19930;DHT22;10127;47.780;9.606;2022-07-10T07:27:37;20.40;98.50
19930;DHT22;10127;47.780;9.606;2022-07-10T07:30:05;20.60;98.20
19930;DHT22;10127;47.780;9.606;2022-07-10T07:32:32;20.50;98.10
19930;DHT22;10127;47.780;9.606;2022-07-10T07:34:57;20.50;98.00
19930;DHT22;10127;47.780;9.606;2022-07-10T07:37:33;20.60;98.10
19930;DHT22;10127;47.780;9.606;2022-07-10T07:39:59;20.60;98.00
19930;DHT22;10127;47.780;9.606;2022-07-10T07:42:25;20.60;97.50
19930;DHT22;10127;47.780;9.606;2022-07-10T07:44:50;20.50;98.10
19930;DHT22;10127;47.780;9.606;2022-07-10T07:47:16;20.50;97.80
19930;DHT22;10127;47.780;9.606;2022-07-10T07:49:41;20.50;98.10
19930;DHT22;10127;47.780;9.606;2022-07-10T07:52:07;20.80;97.50
19930;DHT22;10127;47.780;9.606;2022-07-10T07:54:32;20.60;97.40
19930;DHT22;10127;47.780;9.606;2022-07-10T07:56:58;20.70;97.20
19930;DHT22;10127;47.780;9.606;2022-07-10T07:59:23;20.70;97.10
19930;DHT22;10127;47.780;9.606;2022-07-10T08:01:49;20.70;97.00
19930;DHT22;10127;47.780;9.606;2022-07-10T08:04:14;21.10;96.60
19930;DHT22;10127;47.780;9.606;2022-07-10T08:06:40;21.00;96.60
19930;DHT22;10127;47.780;9.606;2022-07-10T08:09:06;21.10;96.30
19930;DHT22;10127;47.780;9.606;2022-07-10T08:11:31;21.00;96.40
19930;DHT22;10127;47.780;9.606;2022-07-10T08:13:57;20.80;96.40
19930;DHT22;10127;47.780;9.606;2022-07-10T08:16:22;20.90;96.60
19930;DHT22;10127;47.780;9.606;2022-07-10T08:18:48;21.10;96.10
19930;DHT22;10127;47.780;9.606;2022-07-10T08:21:13;21.30;95.90
19930;DHT22;10127;47.780;9.606;2022-07-10T08:23:39;21.10;95.90
19930;DHT22;10127;47.780;9.606;2022-07-10T08:26:04;21.20;96.00
19930;DHT22;10127;47.780;9.606;2022-07-10T08:28:30;21.10;96.10
19930;DHT22;10127;47.780;9.606;2022-07-10T08:30:56;20.90;96.10
19930;DHT22;10127;47.780;9.606;2022-07-10T08:33:21;21.10;95.90
19930;DHT22;10127;47.780;9.606;2022-07-10T08:35:47;21.20;95.50
19930;DHT22;10127;47.780;9.606;2022-07-10T08:38:13;21.20;95.50
19930;DHT22;10127;47.780;9.606;2022-07-10T08:40:39;21.60;94.90
19930;DHT22;10127;47.780;9.606;2022-07-10T08:43:06;22.00;94.30
19930;DHT22;10127;47.780;9.606;2022-07-10T08:45:32;22.10;94.00
19930;DHT22;10127;47.780;9.606;2022-07-10T08:48:02;21.60;94.30
19930;DHT22;10127;47.780;9.606;2022-07-10T08:50:31;21.40;94.50
19930;DHT22;10127;47.780;9.606;2022-07-10T08:53:04;21.60;94.20
19930;DHT22;10127;47.780;9.606;2022-07-10T08:55:33;21.60;93.70
19930;DHT22;10127;47.780;9.606;2022-07-10T08:57:59;21.60;94.00
19930;DHT22;10127;47.780;9.606;2022-07-10T09:00:26;21.70;93.90
19930;DHT22;10127;47.780;9.606;2022-07-10T09:02:54;21.80;93.10
19930;DHT22;10127;47.780;9.606;2022-07-10T09:05:21;22.00;93.00
19930;DHT22;10127;47.780;9.606;2022-07-10T09:07:46;22.00;93.10
19930;DHT22;10127;47.780;9.606;2022-07-10T09:10:12;21.90;92.60
19930;DHT22;10127;47.780;9.606;2022-07-10T09:12:57;22.10;92.40
19930;DHT22;10127;47.780;9.606;2022-07-10T09:15:30;21.90;92.50
19930;DHT22;10127;47.780;9.606;2022-07-10T09:17:59;22.20;92.50
19930;DHT22;10127;47.780;9.606;2022-07-10T09:20:32;22.50;91.60
19930;DHT22;10127;47.780;9.606;2022-07-10T09:23:08;22.70;91.20
19930;DHT22;10127;47.780;9.606;2022-07-10T09:25:35;22.70;91.00
19930;DHT22;10127;47.780;9.606;2022-07-10T09:28:01;22.90;90.70
19930;DHT22;10127;47.780;9.606;2022-07-10T09:30:35;23.00;90.70
19930;DHT22;10127;47.780;9.606;2022-07-10T09:33:34;23.00;90.30
19930;DHT22;10127;47.780;9.606;2022-07-10T09:36:05;23.00;90.20
19930;DHT22;10127;47.780;9.606;2022-07-10T09:41:29;22.40;90.90
19930;DHT22;10127;47.780;9.606;2022-07-10T09:43:59;22.10;91.30
19930;DHT22;10127;47.780;9.606;2022-07-10T09:46:27;22.00;91.70
19930;DHT22;10127;47.780;9.606;2022-07-10T09:49:13;22.10;91.70
19930;DHT22;10127;47.780;9.606;2022-07-10T09:51:40;22.20;91.50
19930;DHT22;10127;47.780;9.606;2022-07-10T09:54:07;22.30;91.20
19930;DHT22;10127;47.780;9.606;2022-07-10T09:56:40;22.70;90.90
19930;DHT22;10127;47.780;9.606;2022-07-10T09:59:13;23.10;90.50
19930;DHT22;10127;47.780;9.606;2022-07-10T10:01:46;23.20;90.10
19930;DHT22;10127;47.780;9.606;2022-07-10T10:04:17;23.10;90.20
19930;DHT22;10127;47.780;9.606;2022-07-10T10:06:46;23.20;89.40
19930;DHT22;10127;47.780;9.606;2022-07-10T10:09:25;22.90;90.10
19930;DHT22;10127;47.780;9.606;2022-07-10T10:11:59;22.60;90.20
19930;DHT22;10127;47.780;9.606;2022-07-10T10:14:28;22.40;90.50
19930;DHT22;10127;47.780;9.606;2022-07-10T10:16:55;22.50;90.20
19930;DHT22;10127;47.780;9.606;2022-07-10T10:19:23;22.60;90.00
19930;DHT22;10127;47.780;9.606;2022-07-10T10:22:08;22.40;89.90
19930;DHT22;10127;47.780;9.606;2022-07-10T10:24:34;22.40;90.10
19930;DHT22;10127;47.780;9.606;2022-07-10T10:27:01;22.40;90.10
19930;DHT22;10127;47.780;9.606;2022-07-10T10:29:28;22.50;90.90
19930;DHT22;10127;47.780;9.606;2022-07-10T10:31:54;22.50;90.90
19930;DHT22;10127;47.780;9.606;2022-07-10T10:34:40;22.60;90.80
19930;DHT22;10127;47.780;9.606;2022-07-10T10:39:54;23.10;90.30
19930;DHT22;10127;47.780;9.606;2022-07-10T10:42:40;23.20;88.80
19930;DHT22;10127;47.780;9.606;2022-07-10T10:48:14;23.00;90.40
19930;DHT22;10127;47.780;9.606;2022-07-10T10:50:50;23.10;90.90
19930;DHT22;10127;47.780;9.606;2022-07-10T10:53:23;23.20;90.50
19930;DHT22;10127;47.780;9.606;2022-07-10T11:01:05;23.10;90.20
19930;DHT22;10127;47.780;9.606;2022-07-10T11:03:31;23.10;89.80
19930;DHT22;10127;47.780;9.606;2022-07-10T11:05:57;23.20;89.90
19930;DHT22;10127;47.780;9.606;2022-07-10T11:08:58;23.30;89.80
19930;DHT22;10127;47.780;9.606;2022-07-10T11:13:57;23.80;88.20
19930;DHT22;10127;47.780;9.606;2022-07-10T11:16:22;23.80;86.90
19930;DHT22;10127;47.780;9.606;2022-07-10T11:18:52;23.90;86.20
19930;DHT22;10127;47.780;9.606;2022-07-10T11:21:24;24.00;85.70
19930;DHT22;10127;47.780;9.606;2022-07-10T11:26:52;24.00;85.30
19930;DHT22;10127;47.780;9.606;2022-07-10T11:29:21;23.30;83.00
19930;DHT22;10127;47.780;9.606;2022-07-10T11:31:53;22.90;83.70
19930;DHT22;10127;47.780;9.606;2022-07-10T11:34:20;23.00;84.80
19930;DHT22;10127;47.780;9.606;2022-07-10T11:36:47;23.10;83.50
19930;DHT22;10127;47.780;9.606;2022-07-10T11:39:13;23.60;85.40
19930;DHT22;10127;47.780;9.606;2022-07-10T11:41:43;23.90;90.00
19930;DHT22;10127;47.780;9.606;2022-07-10T11:44:17;23.90;89.90
19930;DHT22;10127;47.780;9.606;2022-07-10T11:46:44;23.90;89.50
19930;DHT22;10127;47.780;9.606;2022-07-10T11:49:11;23.60;85.60
19930;DHT22;10127;47.780;9.606;2022-07-10T11:51:38;23.40;86.50
19930;DHT22;10127;47.780;9.606;2022-07-10T11:54:05;23.40;87.60
19930;DHT22;10127;47.780;9.606;2022-07-10T11:56:36;23.40;89.10
19930;DHT22;10127;47.780;9.606;2022-07-10T11:59:07;23.50;90.10
19930;DHT22;10127;47.780;9.606;2022-07-10T12:01:34;23.40;89.50
19930;DHT22;10127;47.780;9.606;2022-07-10T12:04:04;23.40;90.10
19930;DHT22;10127;47.780;9.606;2022-07-10T12:06:31;23.50;89.80
19930;DHT22;10127;47.780;9.606;2022-07-10T12:09:05;23.80;90.00
19930;DHT22;10127;47.780;9.606;2022-07-10T12:11:31;24.30;88.70
19930;DHT22;10127;47.780;9.606;2022-07-10T12:14:10;24.50;87.30
19930;DHT22;10127;47.780;9.606;2022-07-10T12:16:38;24.80;85.90
19930;DHT22;10127;47.780;9.606;2022-07-10T12:19:06;24.70;87.20
19930;DHT22;10127;47.780;9.606;2022-07-10T12:21:32;24.60;87.30
19930;DHT22;10127;47.780;9.606;2022-07-10T12:23:58;24.50;86.50
19930;DHT22;10127;47.780;9.606;2022-07-10T12:26:32;24.50;85.20
19930;DHT22;10127;47.780;9.606;2022-07-10T12:28:57;24.50;85.40
19930;DHT22;10127;47.780;9.606;2022-07-10T12:31:28;24.80;84.70
19930;DHT22;10127;47.780;9.606;2022-07-10T12:34:04;25.00;84.10
19930;DHT22;10127;47.780;9.606;2022-07-10T12:36:51;25.10;83.10
19930;DHT22;10127;47.780;9.606;2022-07-10T12:39:22;25.20;80.70
19930;DHT22;10127;47.780;9.606;2022-07-10T12:41:58;25.00;81.20
19930;DHT22;10127;47.780;9.606;2022-07-10T12:49:56;24.40;81.70
19930;DHT22;10127;47.780;9.606;2022-07-10T12:52:30;24.30;81.50
19930;DHT22;10127;47.780;9.606;2022-07-10T13:00:16;24.30;80.60
19930;DHT22;10127;47.780;9.606;2022-07-10T13:02:44;24.40;80.80
19930;DHT22;10127;47.780;9.606;2022-07-10T13:05:10;24.40;81.90
19930;DHT22;10127;47.780;9.606;2022-07-10T13:07:49;24.50;81.90
19930;DHT22;10127;47.780;9.606;2022-07-10T13:10:15;24.80;81.40
19930;DHT22;10127;47.780;9.606;2022-07-10T13:12:41;25.00;80.30
19930;DHT22;10127;47.780;9.606;2022-07-10T13:15:07;25.30;79.80
19930;DHT22;10127;47.780;9.606;2022-07-10T13:17:32;25.50;79.50
19930;DHT22;10127;47.780;9.606;2022-07-10T13:19:58;25.70;79.10
19930;DHT22;10127;47.780;9.606;2022-07-10T13:22:24;25.60;79.00
19930;DHT22;10127;47.780;9.606;2022-07-10T13:24:49;25.70;77.20
19930;DHT22;10127;47.780;9.606;2022-07-10T13:27:15;25.30;77.30
19930;DHT22;10127;47.780;9.606;2022-07-10T13:29:41;25.30;76.40
19930;DHT22;10127;47.780;9.606;2022-07-10T13:32:07;25.50;75.40
19930;DHT22;10127;47.780;9.606;2022-07-10T13:34:32;25.50;74.00
19930;DHT22;10127;47.780;9.606;2022-07-10T13:36:58;25.30;73.90
19930;DHT22;10127;47.780;9.606;2022-07-10T13:39:24;25.40;74.30
19930;DHT22;10127;47.780;9.606;2022-07-10T13:41:50;25.40;73.60
19930;DHT22;10127;47.780;9.606;2022-07-10T13:44:16;25.70;73.20
19930;DHT22;10127;47.780;9.606;2022-07-10T13:46:42;26.00;72.00
19930;DHT22;10127;47.780;9.606;2022-07-10T13:49:07;26.30;72.00
19930;DHT22;10127;47.780;9.606;2022-07-10T13:51:33;26.20;72.60
19930;DHT22;10127;47.780;9.606;2022-07-10T13:53:59;26.00;72.20
19930;DHT22;10127;47.780;9.606;2022-07-10T13:56:24;25.80;72.50
19930;DHT22;10127;47.780;9.606;2022-07-10T13:58:51;25.50;72.90
19930;DHT22;10127;47.780;9.606;2022-07-10T14:01:17;25.30;73.40
19930;DHT22;10127;47.780;9.606;2022-07-10T14:03:43;25.00;73.50
19930;DHT22;10127;47.780;9.606;2022-07-10T14:06:08;24.80;74.90
19930;DHT22;10127;47.780;9.606;2022-07-10T14:08:34;24.70;75.50
19930;DHT22;10127;47.780;9.606;2022-07-10T14:10:59;24.70;76.30
19930;DHT22;10127;47.780;9.606;2022-07-10T14:13:25;24.80;75.10
19930;DHT22;10127;47.780;9.606;2022-07-10T14:15:51;25.00;74.70
19930;DHT22;10127;47.780;9.606;2022-07-10T14:18:17;25.20;74.50
19930;DHT22;10127;47.780;9.606;2022-07-10T14:21:09;25.40;73.90
19930;DHT22;10127;47.780;9.606;2022-07-10T14:23:37;25.60;73.50
19930;DHT22;10127;47.780;9.606;2022-07-10T14:26:05;25.50;73.30
19930;DHT22;10127;47.780;9.606;2022-07-10T14:28:31;25.40;73.00
19930;DHT22;10127;47.780;9.606;2022-07-10T14:30:57;25.40;73.20
19930;DHT22;10127;47.780;9.606;2022-07-10T14:33:26;25.30;72.50
19930;DHT22;10127;47.780;9.606;2022-07-10T14:35:51;24.90;73.20
19930;DHT22;10127;47.780;9.606;2022-07-10T14:38:17;24.60;74.40
19930;DHT22;10127;47.780;9.606;2022-07-10T14:40:42;24.70;74.30
19930;DHT22;10127;47.780;9.606;2022-07-10T14:43:08;25.10;73.00
19930;DHT22;10127;47.780;9.606;2022-07-10T14:45:34;25.50;72.30
19930;DHT22;10127;47.780;9.606;2022-07-10T14:48:00;25.60;71.40
19930;DHT22;10127;47.780;9.606;2022-07-10T14:50:25;26.00;69.70
19930;DHT22;10127;47.780;9.606;2022-07-10T14:52:51;26.30;69.10
19930;DHT22;10127;47.780;9.606;2022-07-10T14:55:17;26.10;68.90
19930;DHT22;10127;47.780;9.606;2022-07-10T14:57:43;25.60;70.40
19930;DHT22;10127;47.780;9.606;2022-07-10T15:00:09;25.80;70.20
19930;DHT22;10127;47.780;9.606;2022-07-10T15:02:35;26.00;70.00
19930;DHT22;10127;47.780;9.606;2022-07-10T15:05:00;25.90;70.30
19930;DHT22;10127;47.780;9.606;2022-07-10T15:07:27;25.50;69.30
19930;DHT22;10127;47.780;9.606;2022-07-10T15:09:53;25.30;70.90
19930;DHT22;10127;47.780;9.606;2022-07-10T15:12:19;25.00;71.60
19930;DHT22;10127;47.780;9.606;2022-07-10T15:14:46;24.80;72.10
19930;DHT22;10127;47.780;9.606;2022-07-10T15:17:12;24.60;73.00
19930;DHT22;10127;47.780;9.606;2022-07-10T15:19:37;24.60;73.30
19930;DHT22;10127;47.780;9.606;2022-07-10T15:22:03;24.80;71.90
19930;DHT22;10127;47.780;9.606;2022-07-10T15:24:28;25.10;70.70
19930;DHT22;10127;47.780;9.606;2022-07-10T15:26:54;25.30;70.70
19930;DHT22;10127;47.780;9.606;2022-07-10T15:29:19;25.40;70.20
19930;DHT22;10127;47.780;9.606;2022-07-10T15:31:49;25.40;69.60
19930;DHT22;10127;47.780;9.606;2022-07-10T15:34:15;25.40;69.60
19930;DHT22;10127;47.780;9.606;2022-07-10T15:36:42;25.00;70.10
19930;DHT22;10127;47.780;9.606;2022-07-10T15:39:08;24.80;70.20
19930;DHT22;10127;47.780;9.606;2022-07-10T15:41:34;24.90;69.30
19930;DHT22;10127;47.780;9.606;2022-07-10T15:44:00;24.90;69.10
19930;DHT22;10127;47.780;9.606;2022-07-10T15:46:27;24.60;68.80
19930;DHT22;10127;47.780;9.606;2022-07-10T15:48:52;24.60;69.50
19930;DHT22;10127;47.780;9.606;2022-07-10T15:51:18;24.50;70.50
19930;DHT22;10127;47.780;9.606;2022-07-10T15:53:43;24.60;70.70
19930;DHT22;10127;47.780;9.606;2022-07-10T15:56:09;25.40;69.60
19930;DHT22;10127;47.780;9.606;2022-07-10T15:58:34;25.10;69.70
19930;DHT22;10127;47.780;9.606;2022-07-10T16:01:00;24.80;70.90
19930;DHT22;10127;47.780;9.606;2022-07-10T16:03:26;24.60;70.90
19930;DHT22;10127;47.780;9.606;2022-07-10T16:05:52;24.40;71.40
19930;DHT22;10127;47.780;9.606;2022-07-10T16:08:17;24.40;71.70
19930;DHT22;10127;47.780;9.606;2022-07-10T16:10:47;24.50;71.10
19930;DHT22;10127;47.780;9.606;2022-07-10T16:13:13;24.40;71.10
19930;DHT22;10127;47.780;9.606;2022-07-10T16:15:39;24.30;71.50
19930;DHT22;10127;47.780;9.606;2022-07-10T16:18:05;24.10;71.70
19930;DHT22;10127;47.780;9.606;2022-07-10T16:20:30;23.90;72.50
19930;DHT22;10127;47.780;9.606;2022-07-10T16:23:00;23.90;73.00